sensor_id;sensor_type;location;lat;lon;timestamp;P1;durP1;ratioP1;P2;durP2;ratioP2
13425;SDS011;6785;57.918;12.530;2023-07-13T00:00:08;9.17;;;4.73;;
13425;SDS011;6785;57.918;12.530;2023-07-13T00:02:37;11.77;;;4.97;;
13425;SDS011;6785;57.918;12.530;2023-07-13T00:05:04;11.60;;;4.83;;
13425;SDS011;6785;57.918;12.530;2023-07-13T00:07:33;14.07;;;4.20;;
13425;SDS011;6785;57.918;12.530;2023-07-13T00:10:00;16.07;;;5.27;;
13425;SDS011;6785;57.918;12.530;2023-07-13T00:12:28;11.87;;;4.83;;
13425;SDS011;6785;57.918;12.530;2023-07-13T00:14:56;10.60;;;4.73;;
13425;SDS011;6785;57.918;12.530;2023-07-13T00:17:24;13.67;;;5.30;;
13425;SDS011;6785;57.918;12.530;2023-07-13T00:19:52;10.83;;;5.10;;
13425;SDS011;6785;57.918;12.530;2023-07-13T00:22:20;8.90;;;4.70;;
13425;SDS011;6785;57.918;12.530;2023-07-13T00:24:51;14.10;;;5.50;;
13425;SDS011;6785;57.918;12.530;2023-07-13T00:27:20;10.77;;;4.80;;
13425;SDS011;6785;57.918;12.530;2023-07-13T00:29:47;19.33;;;5.27;;
13425;SDS011;6785;57.918;12.530;2023-07-13T00:32:14;10.43;;;4.97;;
13425;SDS011;6785;57.918;12.530;2023-07-13T00:34:40;14.17;;;5.23;;
13425;SDS011;6785;57.918;12.530;2023-07-13T00:37:07;12.47;;;4.60;;
13425;SDS011;6785;57.918;12.530;2023-07-13T00:39:34;19.03;;;5.43;;
13425;SDS011;6785;57.918;12.530;2023-07-13T00:42:03;11.90;;;4.97;;
13425;SDS011;6785;57.918;12.530;2023-07-13T00:44:30;14.30;;;5.60;;
13425;SDS011;6785;57.918;12.530;2023-07-13T00:46:57;18.93;;;5.73;;
13425;SDS011;6785;57.918;12.530;2023-07-13T00:49:25;15.10;;;5.57;;
13425;SDS011;6785;57.918;12.530;2023-07-13T00:51:54;18.73;;;5.27;;
13425;SDS011;6785;57.918;12.530;2023-07-13T00:54:22;16.97;;;6.00;;
13425;SDS011;6785;57.918;12.530;2023-07-13T00:56:54;16.67;;;6.37;;
13425;SDS011;6785;57.918;12.530;2023-07-13T00:59:26;16.50;;;6.07;;
13425;SDS011;6785;57.918;12.530;2023-07-13T01:01:54;15.47;;;5.27;;
13425;SDS011;6785;57.918;12.530;2023-07-13T01:04:22;14.83;;;5.83;;
13425;SDS011;6785;57.918;12.530;2023-07-13T01:06:50;13.97;;;4.87;;
13425;SDS011;6785;57.918;12.530;2023-07-13T01:09:17;11.53;;;5.37;;
13425;SDS011;6785;57.918;12.530;2023-07-13T01:11:44;16.10;;;5.23;;
13425;SDS011;6785;57.918;12.530;2023-07-13T01:14:11;8.83;;;5.40;;
13425;SDS011;6785;57.918;12.530;2023-07-13T01:16:40;19.73;;;5.97;;
13425;SDS011;6785;57.918;12.530;2023-07-13T01:19:12;16.60;;;5.53;;
13425;SDS011;6785;57.918;12.530;2023-07-13T01:21:52;17.30;;;5.70;;
13425;SDS011;6785;57.918;12.530;2023-07-13T01:24:19;20.27;;;6.13;;
13425;SDS011;6785;57.918;12.530;2023-07-13T01:26:45;18.00;;;6.27;;
13425;SDS011;6785;57.918;12.530;2023-07-13T01:29:12;16.97;;;5.27;;
13425;SDS011;6785;57.918;12.530;2023-07-13T01:31:39;14.17;;;5.50;;
13425;SDS011;6785;57.918;12.530;2023-07-13T01:34:06;9.47;;;4.97;;
13425;SDS011;6785;57.918;12.530;2023-07-13T01:36:33;10.60;;;5.33;;
13425;SDS011;6785;57.918;12.530;2023-07-13T01:39:02;13.13;;;5.37;;
13425;SDS011;6785;57.918;12.530;2023-07-13T01:41:29;19.37;;;5.70;;
13425;SDS011;6785;57.918;12.530;2023-07-13T01:43:56;13.37;;;4.83;;
13425;SDS011;6785;57.918;12.530;2023-07-13T01:46:23;18.07;;;5.90;;
13425;SDS011;6785;57.918;12.530;2023-07-13T01:48:50;15.20;;;5.47;;
13425;SDS011;6785;57.918;12.530;2023-07-13T01:51:17;12.47;;;4.97;;
13425;SDS011;6785;57.918;12.530;2023-07-13T01:53:45;12.37;;;4.87;;
13425;SDS011;6785;57.918;12.530;2023-07-13T01:56:13;18.67;;;5.27;;
13425;SDS011;6785;57.918;12.530;2023-07-13T01:58:40;15.57;;;5.53;;
13425;SDS011;6785;57.918;12.530;2023-07-13T02:01:06;11.87;;;4.53;;
13425;SDS011;6785;57.918;12.530;2023-07-13T02:03:36;11.37;;;5.10;;
13425;SDS011;6785;57.918;12.530;2023-07-13T02:06:02;11.60;;;5.33;;
13425;SDS011;6785;57.918;12.530;2023-07-13T02:08:30;11.70;;;4.80;;
13425;SDS011;6785;57.918;12.530;2023-07-13T02:10:57;12.00;;;5.00;;
13425;SDS011;6785;57.918;12.530;2023-07-13T02:13:26;18.53;;;4.93;;
13425;SDS011;6785;57.918;12.530;2023-07-13T02:15:53;13.03;;;4.80;;
13425;SDS011;6785;57.918;12.530;2023-07-13T02:18:19;14.67;;;5.17;;
13425;SDS011;6785;57.918;12.530;2023-07-13T02:20:46;14.73;;;5.37;;
13425;SDS011;6785;57.918;12.530;2023-07-13T02:23:13;20.17;;;4.97;;
13425;SDS011;6785;57.918;12.530;2023-07-13T02:25:40;11.10;;;5.07;;
13425;SDS011;6785;57.918;12.530;2023-07-13T02:28:07;12.67;;;4.67;;
13425;SDS011;6785;57.918;12.530;2023-07-13T02:30:35;14.90;;;4.87;;
13425;SDS011;6785;57.918;12.530;2023-07-13T02:33:03;10.77;;;5.00;;
13425;SDS011;6785;57.918;12.530;2023-07-13T02:35:30;15.33;;;4.90;;
13425;SDS011;6785;57.918;12.530;2023-07-13T02:37:56;14.73;;;4.97;;
13425;SDS011;6785;57.918;12.530;2023-07-13T02:40:23;10.17;;;4.77;;
13425;SDS011;6785;57.918;12.530;2023-07-13T02:42:50;9.40;;;4.77;;
13425;SDS011;6785;57.918;12.530;2023-07-13T02:45:17;15.00;;;5.30;;
13425;SDS011;6785;57.918;12.530;2023-07-13T02:47:45;10.23;;;5.53;;
13425;SDS011;6785;57.918;12.530;2023-07-13T02:50:12;9.97;;;4.60;;
13425;SDS011;6785;57.918;12.530;2023-07-13T02:52:38;12.43;;;5.57;;
13425;SDS011;6785;57.918;12.530;2023-07-13T02:55:05;16.10;;;4.70;;
13425;SDS011;6785;57.918;12.530;2023-07-13T02:57:32;11.70;;;5.30;;
13425;SDS011;6785;57.918;12.530;2023-07-13T02:59:59;10.67;;;5.40;;
13425;SDS011;6785;57.918;12.530;2023-07-13T03:02:26;13.13;;;6.13;;
13425;SDS011;6785;57.918;12.530;2023-07-13T03:04:54;18.97;;;5.83;;
13425;SDS011;6785;57.918;12.530;2023-07-13T03:07:21;11.10;;;5.10;;
13425;SDS011;6785;57.918;12.530;2023-07-13T03:09:48;14.97;;;5.23;;
13425;SDS011;6785;57.918;12.530;2023-07-13T03:12:14;13.77;;;5.00;;
13425;SDS011;6785;57.918;12.530;2023-07-13T03:14:41;12.87;;;5.80;;
13425;SDS011;6785;57.918;12.530;2023-07-13T03:17:08;19.27;;;5.30;;
13425;SDS011;6785;57.918;12.530;2023-07-13T03:19:35;14.00;;;4.80;;
13425;SDS011;6785;57.918;12.530;2023-07-13T03:22:04;16.23;;;6.10;;
13425;SDS011;6785;57.918;12.530;2023-07-13T03:24:32;10.10;;;4.80;;
13425;SDS011;6785;57.918;12.530;2023-07-13T03:27:00;11.70;;;5.13;;
13425;SDS011;6785;57.918;12.530;2023-07-13T03:29:27;11.60;;;5.63;;
13425;SDS011;6785;57.918;12.530;2023-07-13T03:31:54;12.13;;;5.00;;
13425;SDS011;6785;57.918;12.530;2023-07-13T03:34:20;8.73;;;4.70;;
13425;SDS011;6785;57.918;12.530;2023-07-13T03:36:47;13.67;;;5.10;;
13425;SDS011;6785;57.918;12.530;2023-07-13T03:39:15;19.07;;;4.93;;
13425;SDS011;6785;57.918;12.530;2023-07-13T03:41:42;11.13;;;5.17;;
13425;SDS011;6785;57.918;12.530;2023-07-13T03:44:08;11.47;;;4.80;;
13425;SDS011;6785;57.918;12.530;2023-07-13T03:46:35;13.93;;;5.23;;
13425;SDS011;6785;57.918;12.530;2023-07-13T03:49:03;11.97;;;5.23;;
13425;SDS011;6785;57.918;12.530;2023-07-13T03:51:30;11.33;;;5.10;;
13425;SDS011;6785;57.918;12.530;2023-07-13T03:53:57;12.93;;;5.07;;
13425;SDS011;6785;57.918;12.530;2023-07-13T03:56:25;11.20;;;5.10;;
13425;SDS011;6785;57.918;12.530;2023-07-13T03:58:52;20.30;;;5.80;;
13425;SDS011;6785;57.918;12.530;2023-07-13T04:01:19;9.77;;;4.97;;
13425;SDS011;6785;57.918;12.530;2023-07-13T04:03:48;15.20;;;5.13;;
13425;SDS011;6785;57.918;12.530;2023-07-13T04:06:15;10.63;;;4.87;;
13425;SDS011;6785;57.918;12.530;2023-07-13T04:08:46;13.30;;;5.00;;
13425;SDS011;6785;57.918;12.530;2023-07-13T04:11:15;12.57;;;4.77;;
13425;SDS011;6785;57.918;12.530;2023-07-13T04:13:43;12.87;;;4.80;;
13425;SDS011;6785;57.918;12.530;2023-07-13T04:16:10;14.43;;;5.03;;
13425;SDS011;6785;57.918;12.530;2023-07-13T04:18:37;10.47;;;4.40;;
13425;SDS011;6785;57.918;12.530;2023-07-13T04:21:04;17.90;;;5.17;;
13425;SDS011;6785;57.918;12.530;2023-07-13T04:23:31;7.90;;;4.47;;
13425;SDS011;6785;57.918;12.530;2023-07-13T04:25:58;10.90;;;4.50;;
13425;SDS011;6785;57.918;12.530;2023-07-13T04:28:25;13.40;;;4.87;;
13425;SDS011;6785;57.918;12.530;2023-07-13T04:30:53;11.60;;;4.90;;
13425;SDS011;6785;57.918;12.530;2023-07-13T04:33:22;14.03;;;4.60;;
13425;SDS011;6785;57.918;12.530;2023-07-13T04:35:49;12.47;;;4.57;;
13425;SDS011;6785;57.918;12.530;2023-07-13T04:38:21;12.23;;;4.97;;
13425;SDS011;6785;57.918;12.530;2023-07-13T04:40:49;13.40;;;4.77;;
13425;SDS011;6785;57.918;12.530;2023-07-13T04:43:17;20.23;;;5.10;;
13425;SDS011;6785;57.918;12.530;2023-07-13T04:45:44;10.97;;;4.87;;
13425;SDS011;6785;57.918;12.530;2023-07-13T04:48:13;10.00;;;4.57;;
13425;SDS011;6785;57.918;12.530;2023-07-13T04:50:39;10.10;;;4.27;;
13425;SDS011;6785;57.918;12.530;2023-07-13T04:53:06;8.97;;;4.37;;
13425;SDS011;6785;57.918;12.530;2023-07-13T04:55:33;11.27;;;4.67;;
13425;SDS011;6785;57.918;12.530;2023-07-13T04:58:00;11.00;;;4.50;;
13425;SDS011;6785;57.918;12.530;2023-07-13T05:00:28;9.03;;;3.90;;
13425;SDS011;6785;57.918;12.530;2023-07-13T05:02:55;13.00;;;4.53;;
13425;SDS011;6785;57.918;12.530;2023-07-13T05:05:24;13.83;;;4.27;;
13425;SDS011;6785;57.918;12.530;2023-07-13T05:07:52;11.33;;;3.47;;
13425;SDS011;6785;57.918;12.530;2023-07-13T05:10:19;10.80;;;3.80;;
13425;SDS011;6785;57.918;12.530;2023-07-13T05:12:46;9.03;;;3.80;;
13425;SDS011;6785;57.918;12.530;2023-07-13T05:15:13;13.20;;;3.50;;
13425;SDS011;6785;57.918;12.530;2023-07-13T05:17:40;8.57;;;3.50;;
13425;SDS011;6785;57.918;12.530;2023-07-13T05:20:07;9.93;;;3.40;;
13425;SDS011;6785;57.918;12.530;2023-07-13T05:22:36;8.23;;;3.50;;
13425;SDS011;6785;57.918;12.530;2023-07-13T05:25:04;8.20;;;3.87;;
13425;SDS011;6785;57.918;12.530;2023-07-13T05:27:32;8.67;;;3.10;;
13425;SDS011;6785;57.918;12.530;2023-07-13T05:29:59;12.37;;;3.10;;
13425;SDS011;6785;57.918;12.530;2023-07-13T05:32:27;10.70;;;3.03;;
13425;SDS011;6785;57.918;12.530;2023-07-13T05:34:53;13.13;;;3.53;;
13425;SDS011;6785;57.918;12.530;2023-07-13T05:37:20;10.90;;;3.40;;
13425;SDS011;6785;57.918;12.530;2023-07-13T05:39:48;9.90;;;3.57;;
13425;SDS011;6785;57.918;12.530;2023-07-13T05:42:15;12.33;;;3.50;;
13425;SDS011;6785;57.918;12.530;2023-07-13T05:44:42;7.87;;;3.07;;
13425;SDS011;6785;57.918;12.530;2023-07-13T05:47:08;13.27;;;3.20;;
13425;SDS011;6785;57.918;12.530;2023-07-13T05:49:35;9.07;;;3.33;;
13425;SDS011;6785;57.918;12.530;2023-07-13T05:52:02;8.60;;;2.97;;
13425;SDS011;6785;57.918;12.530;2023-07-13T05:54:29;8.67;;;3.10;;
13425;SDS011;6785;57.918;12.530;2023-07-13T05:56:57;10.40;;;3.13;;
13425;SDS011;6785;57.918;12.530;2023-07-13T05:59:24;9.60;;;2.90;;
13425;SDS011;6785;57.918;12.530;2023-07-13T06:01:51;6.43;;;2.83;;
13425;SDS011;6785;57.918;12.530;2023-07-13T06:04:18;6.30;;;3.30;;
13425;SDS011;6785;57.918;12.530;2023-07-13T06:06:45;5.93;;;2.90;;
13425;SDS011;6785;57.918;12.530;2023-07-13T06:09:11;11.53;;;2.97;;
13425;SDS011;6785;57.918;12.530;2023-07-13T06:11:38;9.20;;;3.10;;
13425;SDS011;6785;57.918;12.530;2023-07-13T06:14:06;4.23;;;2.93;;
13425;SDS011;6785;57.918;12.530;2023-07-13T06:16:33;7.27;;;2.80;;
13425;SDS011;6785;57.918;12.530;2023-07-13T06:19:00;13.07;;;3.33;;
13425;SDS011;6785;57.918;12.530;2023-07-13T06:21:27;11.50;;;2.70;;
13425;SDS011;6785;57.918;12.530;2023-07-13T06:23:54;12.50;;;2.73;;
13425;SDS011;6785;57.918;12.530;2023-07-13T06:26:21;9.87;;;2.40;;
13425;SDS011;6785;57.918;12.530;2023-07-13T06:28:47;12.10;;;2.73;;
13425;SDS011;6785;57.918;12.530;2023-07-13T06:31:15;8.27;;;3.00;;
13425;SDS011;6785;57.918;12.530;2023-07-13T06:33:42;10.10;;;2.60;;
13425;SDS011;6785;57.918;12.530;2023-07-13T06:36:10;6.43;;;2.23;;
13425;SDS011;6785;57.918;12.530;2023-07-13T06:38:36;5.53;;;2.23;;
13425;SDS011;6785;57.918;12.530;2023-07-13T06:41:04;4.33;;;2.30;;
13425;SDS011;6785;57.918;12.530;2023-07-13T06:43:32;5.53;;;2.40;;
13425;SDS011;6785;57.918;12.530;2023-07-13T06:45:58;6.40;;;2.70;;
13425;SDS011;6785;57.918;12.530;2023-07-13T06:48:27;5.23;;;2.10;;
13425;SDS011;6785;57.918;12.530;2023-07-13T06:50:54;10.00;;;2.40;;
13425;SDS011;6785;57.918;12.530;2023-07-13T06:53:21;6.93;;;2.47;;
13425;SDS011;6785;57.918;12.530;2023-07-13T06:55:48;4.77;;;2.50;;
13425;SDS011;6785;57.918;12.530;2023-07-13T06:58:16;8.93;;;2.60;;
13425;SDS011;6785;57.918;12.530;2023-07-13T07:00:44;9.37;;;2.50;;
13425;SDS011;6785;57.918;12.530;2023-07-13T07:03:11;7.47;;;2.43;;
13425;SDS011;6785;57.918;12.530;2023-07-13T07:05:39;6.33;;;2.20;;
13425;SDS011;6785;57.918;12.530;2023-07-13T07:08:06;10.57;;;2.80;;
13425;SDS011;6785;57.918;12.530;2023-07-13T07:10:34;6.90;;;2.40;;
13425;SDS011;6785;57.918;12.530;2023-07-13T07:13:01;6.20;;;2.50;;
13425;SDS011;6785;57.918;12.530;2023-07-13T07:15:28;7.43;;;3.17;;
13425;SDS011;6785;57.918;12.530;2023-07-13T07:17:55;10.57;;;2.77;;
13425;SDS011;6785;57.918;12.530;2023-07-13T07:20:22;8.03;;;2.73;;
13425;SDS011;6785;57.918;12.530;2023-07-13T07:22:50;6.30;;;2.70;;
13425;SDS011;6785;57.918;12.530;2023-07-13T07:25:17;6.40;;;2.60;;
13425;SDS011;6785;57.918;12.530;2023-07-13T07:27:44;6.97;;;2.63;;
13425;SDS011;6785;57.918;12.530;2023-07-13T07:30:11;13.43;;;3.03;;
13425;SDS011;6785;57.918;12.530;2023-07-13T07:32:38;5.00;;;2.57;;
13425;SDS011;6785;57.918;12.530;2023-07-13T07:35:06;7.10;;;2.90;;
13425;SDS011;6785;57.918;12.530;2023-07-13T07:37:33;7.93;;;2.60;;
13425;SDS011;6785;57.918;12.530;2023-07-13T07:40:01;7.50;;;2.93;;
13425;SDS011;6785;57.918;12.530;2023-07-13T07:42:28;6.03;;;2.90;;
13425;SDS011;6785;57.918;12.530;2023-07-13T07:44:55;11.87;;;2.67;;
13425;SDS011;6785;57.918;12.530;2023-07-13T07:47:22;7.50;;;2.70;;
13425;SDS011;6785;57.918;12.530;2023-07-13T07:49:49;4.60;;;2.13;;
13425;SDS011;6785;57.918;12.530;2023-07-13T07:52:16;6.00;;;2.23;;
13425;SDS011;6785;57.918;12.530;2023-07-13T07:54:42;6.77;;;2.53;;
13425;SDS011;6785;57.918;12.530;2023-07-13T07:57:10;5.27;;;2.40;;
13425;SDS011;6785;57.918;12.530;2023-07-13T07:59:37;4.10;;;2.50;;
13425;SDS011;6785;57.918;12.530;2023-07-13T08:02:04;7.27;;;2.70;;
13425;SDS011;6785;57.918;12.530;2023-07-13T08:04:31;5.17;;;2.13;;
13425;SDS011;6785;57.918;12.530;2023-07-13T08:06:58;5.23;;;2.93;;
13425;SDS011;6785;57.918;12.530;2023-07-13T08:09:27;6.07;;;2.40;;
13425;SDS011;6785;57.918;12.530;2023-07-13T08:11:54;4.87;;;2.47;;
13425;SDS011;6785;57.918;12.530;2023-07-13T08:14:22;5.77;;;2.37;;
13425;SDS011;6785;57.918;12.530;2023-07-13T08:16:49;9.13;;;2.27;;
13425;SDS011;6785;57.918;12.530;2023-07-13T08:19:15;5.90;;;2.87;;
13425;SDS011;6785;57.918;12.530;2023-07-13T08:21:42;6.73;;;2.53;;
13425;SDS011;6785;57.918;12.530;2023-07-13T08:24:09;8.27;;;2.53;;
13425;SDS011;6785;57.918;12.530;2023-07-13T08:26:36;6.63;;;2.90;;
13425;SDS011;6785;57.918;12.530;2023-07-13T08:29:02;6.27;;;2.60;;
13425;SDS011;6785;57.918;12.530;2023-07-13T08:31:31;5.67;;;2.60;;
13425;SDS011;6785;57.918;12.530;2023-07-13T08:33:57;8.07;;;2.37;;
13425;SDS011;6785;57.918;12.530;2023-07-13T08:36:25;4.97;;;2.47;;
13425;SDS011;6785;57.918;12.530;2023-07-13T08:38:51;4.47;;;2.20;;
13425;SDS011;6785;57.918;12.530;2023-07-13T08:41:18;6.80;;;2.63;;
13425;SDS011;6785;57.918;12.530;2023-07-13T08:43:47;3.43;;;1.90;;
13425;SDS011;6785;57.918;12.530;2023-07-13T08:46:18;6.50;;;2.03;;
13425;SDS011;6785;57.918;12.530;2023-07-13T08:48:52;4.10;;;2.23;;
13425;SDS011;6785;57.918;12.530;2023-07-13T08:51:28;5.73;;;2.40;;
13425;SDS011;6785;57.918;12.530;2023-07-13T08:54:05;5.83;;;2.20;;
13425;SDS011;6785;57.918;12.530;2023-07-13T08:56:38;4.97;;;2.00;;
13425;SDS011;6785;57.918;12.530;2023-07-13T08:59:11;4.40;;;2.03;;
13425;SDS011;6785;57.918;12.530;2023-07-13T09:04:36;8.43;;;2.10;;
13425;SDS011;6785;57.918;12.530;2023-07-13T09:07:12;4.03;;;2.20;;
13425;SDS011;6785;57.918;12.530;2023-07-13T09:09:50;5.53;;;2.03;;
13425;SDS011;6785;57.918;12.530;2023-07-13T09:12:31;5.30;;;1.97;;
13425;SDS011;6785;57.918;12.530;2023-07-13T09:15:13;7.67;;;2.20;;
13425;SDS011;6785;57.918;12.530;2023-07-13T09:17:48;2.40;;;1.57;;
13425;SDS011;6785;57.918;12.530;2023-07-13T09:20:19;5.13;;;1.80;;
13425;SDS011;6785;57.918;12.530;2023-07-13T09:22:51;7.20;;;2.07;;
13425;SDS011;6785;57.918;12.530;2023-07-13T09:25:29;5.07;;;2.00;;
13425;SDS011;6785;57.918;12.530;2023-07-13T09:27:59;3.63;;;1.97;;
13425;SDS011;6785;57.918;12.530;2023-07-13T09:30:37;6.23;;;1.70;;
13425;SDS011;6785;57.918;12.530;2023-07-13T09:33:12;9.20;;;2.10;;
13425;SDS011;6785;57.918;12.530;2023-07-13T09:35:41;4.10;;;1.53;;
13425;SDS011;6785;57.918;12.530;2023-07-13T09:38:11;4.87;;;1.80;;
13425;SDS011;6785;57.918;12.530;2023-07-13T09:40:43;2.50;;;1.80;;
13425;SDS011;6785;57.918;12.530;2023-07-13T09:43:18;4.10;;;1.70;;
13425;SDS011;6785;57.918;12.530;2023-07-13T09:45:46;2.60;;;1.90;;
13425;SDS011;6785;57.918;12.530;2023-07-13T09:48:14;3.87;;;1.90;;
13425;SDS011;6785;57.918;12.530;2023-07-13T09:50:43;6.60;;;2.17;;
13425;SDS011;6785;57.918;12.530;2023-07-13T09:53:11;8.03;;;1.90;;
13425;SDS011;6785;57.918;12.530;2023-07-13T09:55:39;7.07;;;2.17;;
13425;SDS011;6785;57.918;12.530;2023-07-13T09:58:09;6.90;;;2.10;;
13425;SDS011;6785;57.918;12.530;2023-07-13T10:00:38;3.57;;;1.77;;
13425;SDS011;6785;57.918;12.530;2023-07-13T10:03:13;8.90;;;2.33;;
13425;SDS011;6785;57.918;12.530;2023-07-13T10:05:45;6.40;;;2.17;;
13425;SDS011;6785;57.918;12.530;2023-07-13T10:08:24;6.67;;;2.20;;
13425;SDS011;6785;57.918;12.530;2023-07-13T10:10:54;7.57;;;2.57;;
13425;SDS011;6785;57.918;12.530;2023-07-13T10:13:29;7.57;;;2.50;;
13425;SDS011;6785;57.918;12.530;2023-07-13T10:16:02;10.70;;;2.43;;
13425;SDS011;6785;57.918;12.530;2023-07-13T10:18:31;4.30;;;2.27;;
13425;SDS011;6785;57.918;12.530;2023-07-13T10:21:11;5.63;;;2.10;;
13425;SDS011;6785;57.918;12.530;2023-07-13T10:23:40;5.50;;;2.20;;
13425;SDS011;6785;57.918;12.530;2023-07-13T10:26:10;4.83;;;2.10;;
13425;SDS011;6785;57.918;12.530;2023-07-13T10:28:41;5.63;;;2.10;;
13425;SDS011;6785;57.918;12.530;2023-07-13T10:31:10;6.90;;;2.23;;
13425;SDS011;6785;57.918;12.530;2023-07-13T10:33:39;5.47;;;2.10;;
13425;SDS011;6785;57.918;12.530;2023-07-13T10:36:11;7.17;;;2.20;;
13425;SDS011;6785;57.918;12.530;2023-07-13T10:38:41;4.53;;;2.17;;
13425;SDS011;6785;57.918;12.530;2023-07-13T10:41:09;12.17;;;2.27;;
13425;SDS011;6785;57.918;12.530;2023-07-13T10:43:42;4.87;;;1.77;;
13425;SDS011;6785;57.918;12.530;2023-07-13T10:46:12;2.97;;;1.90;;
13425;SDS011;6785;57.918;12.530;2023-07-13T10:48:42;6.23;;;2.07;;
13425;SDS011;6785;57.918;12.530;2023-07-13T10:51:12;6.23;;;1.90;;
13425;SDS011;6785;57.918;12.530;2023-07-13T10:53:41;2.93;;;1.70;;
13425;SDS011;6785;57.918;12.530;2023-07-13T10:56:18;3.10;;;1.70;;
13425;SDS011;6785;57.918;12.530;2023-07-13T10:58:48;4.10;;;1.93;;
13425;SDS011;6785;57.918;12.530;2023-07-13T11:01:38;8.73;;;2.00;;
13425;SDS011;6785;57.918;12.530;2023-07-13T11:04:08;4.50;;;2.10;;
13425;SDS011;6785;57.918;12.530;2023-07-13T11:06:41;4.77;;;2.03;;
13425;SDS011;6785;57.918;12.530;2023-07-13T11:09:30;6.07;;;1.70;;
13425;SDS011;6785;57.918;12.530;2023-07-13T11:12:05;4.03;;;1.80;;
13425;SDS011;6785;57.918;12.530;2023-07-13T11:14:35;6.07;;;1.70;;
13425;SDS011;6785;57.918;12.530;2023-07-13T11:20:09;3.97;;;1.77;;
13425;SDS011;6785;57.918;12.530;2023-07-13T11:22:50;9.00;;;2.30;;
13425;SDS011;6785;57.918;12.530;2023-07-13T11:25:25;8.70;;;2.20;;
13425;SDS011;6785;57.918;12.530;2023-07-13T11:28:06;3.57;;;1.93;;
13425;SDS011;6785;57.918;12.530;2023-07-13T11:30:43;3.77;;;1.90;;
13425;SDS011;6785;57.918;12.530;2023-07-13T11:33:16;5.37;;;2.20;;
13425;SDS011;6785;57.918;12.530;2023-07-13T11:35:49;5.83;;;2.00;;
13425;SDS011;6785;57.918;12.530;2023-07-13T11:38:27;7.17;;;2.37;;
13425;SDS011;6785;57.918;12.530;2023-07-13T11:40:58;4.77;;;1.87;;
13425;SDS011;6785;57.918;12.530;2023-07-13T11:43:29;4.83;;;1.90;;
13425;SDS011;6785;57.918;12.530;2023-07-13T11:45:58;4.03;;;2.17;;
13425;SDS011;6785;57.918;12.530;2023-07-13T11:48:37;5.87;;;1.90;;
13425;SDS011;6785;57.918;12.530;2023-07-13T11:51:05;3.03;;;1.90;;
13425;SDS011;6785;57.918;12.530;2023-07-13T11:53:36;7.00;;;1.80;;
13425;SDS011;6785;57.918;12.530;2023-07-13T11:56:06;5.73;;;2.20;;
13425;SDS011;6785;57.918;12.530;2023-07-13T11:58:33;4.93;;;1.80;;
13425;SDS011;6785;57.918;12.530;2023-07-13T12:01:01;10.73;;;2.20;;
13425;SDS011;6785;57.918;12.530;2023-07-13T12:03:30;5.57;;;2.00;;
13425;SDS011;6785;57.918;12.530;2023-07-13T12:06:00;3.17;;;1.77;;
13425;SDS011;6785;57.918;12.530;2023-07-13T12:08:28;5.80;;;1.77;;
13425;SDS011;6785;57.918;12.530;2023-07-13T12:11:01;4.60;;;2.00;;
13425;SDS011;6785;57.918;12.530;2023-07-13T12:13:34;10.40;;;2.10;;
13425;SDS011;6785;57.918;12.530;2023-07-13T12:16:07;6.33;;;1.77;;
13425;SDS011;6785;57.918;12.530;2023-07-13T12:18:40;6.63;;;2.10;;
13425;SDS011;6785;57.918;12.530;2023-07-13T12:21:12;5.63;;;2.30;;
13425;SDS011;6785;57.918;12.530;2023-07-13T12:23:42;5.50;;;1.70;;
13425;SDS011;6785;57.918;12.530;2023-07-13T12:26:11;5.93;;;2.07;;
13425;SDS011;6785;57.918;12.530;2023-07-13T12:28:43;2.83;;;2.03;;
13425;SDS011;6785;57.918;12.530;2023-07-13T12:31:22;3.53;;;1.83;;
13425;SDS011;6785;57.918;12.530;2023-07-13T12:33:56;3.23;;;1.90;;
13425;SDS011;6785;57.918;12.530;2023-07-13T12:36:24;7.57;;;1.90;;
13425;SDS011;6785;57.918;12.530;2023-07-13T12:38:52;2.47;;;1.60;;
13425;SDS011;6785;57.918;12.530;2023-07-13T12:41:20;4.40;;;2.10;;
13425;SDS011;6785;57.918;12.530;2023-07-13T12:43:48;4.90;;;1.90;;
13425;SDS011;6785;57.918;12.530;2023-07-13T12:46:16;3.37;;;2.00;;
13425;SDS011;6785;57.918;12.530;2023-07-13T12:48:47;5.40;;;1.83;;
13425;SDS011;6785;57.918;12.530;2023-07-13T12:51:15;4.03;;;1.60;;
13425;SDS011;6785;57.918;12.530;2023-07-13T12:53:43;4.30;;;1.90;;
13425;SDS011;6785;57.918;12.530;2023-07-13T12:56:17;3.37;;;1.83;;
13425;SDS011;6785;57.918;12.530;2023-07-13T12:58:49;3.60;;;1.60;;
13425;SDS011;6785;57.918;12.530;2023-07-13T13:01:19;2.57;;;1.50;;
13425;SDS011;6785;57.918;12.530;2023-07-13T13:03:49;3.17;;;1.53;;
13425;SDS011;6785;57.918;12.530;2023-07-13T13:06:20;4.93;;;1.73;;
13425;SDS011;6785;57.918;12.530;2023-07-13T13:08:49;9.27;;;1.93;;
13425;SDS011;6785;57.918;12.530;2023-07-13T13:11:18;4.10;;;1.80;;
13425;SDS011;6785;57.918;12.530;2023-07-13T13:13:46;3.90;;;1.57;;
13425;SDS011;6785;57.918;12.530;2023-07-13T13:16:21;8.13;;;1.80;;
13425;SDS011;6785;57.918;12.530;2023-07-13T13:18:50;6.80;;;1.70;;
13425;SDS011;6785;57.918;12.530;2023-07-13T13:21:20;4.20;;;1.70;;
13425;SDS011;6785;57.918;12.530;2023-07-13T13:23:47;4.90;;;1.67;;
13425;SDS011;6785;57.918;12.530;2023-07-13T13:26:16;5.20;;;1.73;;
13425;SDS011;6785;57.918;12.530;2023-07-13T13:28:50;4.07;;;1.57;;
13425;SDS011;6785;57.918;12.530;2023-07-13T13:31:18;6.13;;;1.67;;
13425;SDS011;6785;57.918;12.530;2023-07-13T13:33:45;6.93;;;1.50;;
13425;SDS011;6785;57.918;12.530;2023-07-13T13:36:16;7.10;;;1.70;;
13425;SDS011;6785;57.918;12.530;2023-07-13T13:38:44;3.67;;;1.43;;
13425;SDS011;6785;57.918;12.530;2023-07-13T13:41:12;6.33;;;2.20;;
13425;SDS011;6785;57.918;12.530;2023-07-13T13:43:40;4.33;;;1.87;;
13425;SDS011;6785;57.918;12.530;2023-07-13T13:46:13;2.70;;;1.60;;
13425;SDS011;6785;57.918;12.530;2023-07-13T13:48:43;4.10;;;1.80;;
13425;SDS011;6785;57.918;12.530;2023-07-13T13:51:15;6.43;;;1.87;;
13425;SDS011;6785;57.918;12.530;2023-07-13T13:53:43;4.77;;;1.70;;
13425;SDS011;6785;57.918;12.530;2023-07-13T13:56:10;6.97;;;2.43;;
13425;SDS011;6785;57.918;12.530;2023-07-13T13:58:37;8.33;;;2.03;;
13425;SDS011;6785;57.918;12.530;2023-07-13T14:01:04;5.80;;;1.83;;
13425;SDS011;6785;57.918;12.530;2023-07-13T14:03:33;2.87;;;1.70;;
13425;SDS011;6785;57.918;12.530;2023-07-13T14:06:02;3.37;;;1.90;;
13425;SDS011;6785;57.918;12.530;2023-07-13T14:08:28;2.97;;;1.90;;
13425;SDS011;6785;57.918;12.530;2023-07-13T14:10:56;3.40;;;1.90;;
13425;SDS011;6785;57.918;12.530;2023-07-13T14:13:25;5.77;;;2.03;;
13425;SDS011;6785;57.918;12.530;2023-07-13T14:15:54;5.27;;;2.07;;
13425;SDS011;6785;57.918;12.530;2023-07-13T14:18:21;3.60;;;1.80;;
13425;SDS011;6785;57.918;12.530;2023-07-13T14:20:48;5.10;;;2.00;;
13425;SDS011;6785;57.918;12.530;2023-07-13T14:23:18;3.43;;;1.70;;
13425;SDS011;6785;57.918;12.530;2023-07-13T14:25:45;5.73;;;2.17;;
13425;SDS011;6785;57.918;12.530;2023-07-13T14:28:19;4.07;;;1.80;;
13425;SDS011;6785;57.918;12.530;2023-07-13T14:30:49;3.73;;;1.80;;
13425;SDS011;6785;57.918;12.530;2023-07-13T14:33:16;5.53;;;1.50;;
13425;SDS011;6785;57.918;12.530;2023-07-13T14:35:43;1.67;;;1.40;;
13425;SDS011;6785;57.918;12.530;2023-07-13T14:38:11;5.57;;;1.97;;
13425;SDS011;6785;57.918;12.530;2023-07-13T14:40:40;4.87;;;1.83;;
13425;SDS011;6785;57.918;12.530;2023-07-13T14:43:09;4.40;;;1.90;;
13425;SDS011;6785;57.918;12.530;2023-07-13T14:45:38;7.23;;;1.57;;
13425;SDS011;6785;57.918;12.530;2023-07-13T14:48:13;4.27;;;1.70;;
13425;SDS011;6785;57.918;12.530;2023-07-13T14:50:41;6.70;;;1.70;;
13425;SDS011;6785;57.918;12.530;2023-07-13T14:53:09;4.83;;;1.67;;
13425;SDS011;6785;57.918;12.530;2023-07-13T14:55:37;4.87;;;1.60;;
13425;SDS011;6785;57.918;12.530;2023-07-13T14:58:05;3.33;;;1.73;;